Flight Track Log - Related Links

Times and Time Zones

All times are in EDT time to prevent confusion due to time zone crossing. See the N657QS flight status page for this flight to view local times or setup timezone preferences in your user account.

Time Position Orientation Groundspeed Altitude Reporting Facility
EDT Latitude Longitude Course Direction KTS MPH feet Rate Location/Type
Thu 05:19:42 PM 34.9817 -78.8925 282° West 233 268 8,000  Level Washington Center
Thu 05:20:43 PM 34.9981 -78.9844 275° West 260 299 10,300 2,331 Climbing Washington Center
Thu 05:21:43 PM 35.0056 -79.0836 279° West 291 335 12,700 1,881 Climbing Washington Center
Thu 05:22:41 PM 35.0172 -79.1781 276° West 313 360 14,000 655 Climbing Washington Center
Thu 05:23:42 PM 35.0283 -79.2978 279° West 335 386 14,000  Level Washington Center
Thu 05:24:43 PM 35.0433 -79.4200 277° West 364 419 14,000  Level Washington Center
Thu 05:25:41 PM 35.0575 -79.5578 279° West 370 426 14,000  Level Washington Center
Thu 05:26:41 PM 35.0725 -79.6728 260° West 375 432 14,000  Level Washington Center
Thu 05:27:42 PM 35.0531 -79.8114 250° West 369 425 14,000 670 Level Washington Center
Thu 05:30:07 PM 34.9650 -80.1128 251° West 391 450 16,300 1,405 Climbing Atlanta Center
Thu 05:31:07 PM 34.9347 -80.2181 252° West 357 411 18,800 2,450 Climbing Atlanta Center
Thu 05:32:07 PM 34.9067 -80.3258 267° West 340 391 21,200 2,100 Climbing Atlanta Center
Thu 05:33:07 PM 34.9017 -80.4375 291° West 335 386 23,000 1,190 Climbing Atlanta Center
Thu 05:34:08 PM 34.9386 -80.5575 291° West 376 433 23,600 1,000 Climbing Atlanta Center
Thu 05:35:07 PM 34.9775 -80.6825 290° West 388 447 25,000 1,160 Climbing Atlanta Center
Thu 05:36:07 PM 35.0167 -80.8178 290° West 414 476 25,900 1,000 Climbing Atlanta Center
Thu 05:37:07 PM 35.0508 -80.9333 291° West 414 476 27,000 800 Climbing Atlanta Center
Thu 05:38:07 PM 35.0917 -81.0636 291° West 414 476 27,500 1,500 Climbing Atlanta Center
Thu 05:39:07 PM 35.1303 -81.1894 296° West 400 460 30,000 2,250 Climbing Atlanta Center
Thu 05:40:07 PM 35.1767 -81.3047 303° West 389 448 32,000 1,950 Climbing Atlanta Center
Thu 05:41:07 PM 35.2397 -81.4247 288° West 383 441 33,900 1,500 Climbing Atlanta Center
Thu 05:42:07 PM 35.2736 -81.5533 283° West 383 441 35,000 550 Climbing Atlanta Center
Thu 05:43:07 PM 35.2994 -81.6925 283° West 406 467 35,000  Level Atlanta Center
Thu 05:44:07 PM 35.3272 -81.8394 283° West 435 501 35,000  Level Atlanta Center
Thu 05:45:08 PM 35.3547 -81.9811 283° West 442 509 35,000  Level Atlanta Center
Thu 05:46:07 PM 35.3822 -82.1308 283° West 442 509 35,000 100 Level Atlanta Center
Thu 05:47:08 PM 35.4092 -82.2728 284° West 442 509 35,200 694 Climbing Atlanta Center
Thu 05:48:08 PM 35.4339 -82.3972 282° West 431 496 36,400 1,350 Climbing Atlanta Center
Thu 05:49:08 PM 35.4567 -82.5319 281° West 425 489 37,900 800 Climbing Atlanta Center
Thu 05:50:08 PM 35.4814 -82.6869 284° West 420 483 38,000 50 Climbing Atlanta Center
Thu 05:51:08 PM 35.5056 -82.8092 282° West 420 483 38,000  Level Atlanta Center
Thu 05:52:07 PM 35.5297 -82.9517 283° West 420 483 38,000  Level Atlanta Center
Thu 05:53:08 PM 35.5561 -83.0917 283° West 426 490 38,000  Level Atlanta Center
Thu 05:54:08 PM 35.5842 -83.2447 282° West 426 490 38,000  Level Atlanta Center
Thu 05:55:07 PM 35.6081 -83.3822 283° West 426 490 38,000  Level Atlanta Center
Thu 05:56:07 PM 35.6336 -83.5225 281° West 426 490 38,000  Level Atlanta Center
Thu 05:57:07 PM 35.6550 -83.6631 283° West 426 490 38,000  Level Atlanta Center
Thu 05:58:08 PM 35.6806 -83.8008 282° West 426 490 38,000  Level Atlanta Center
Thu 05:59:07 PM 35.7036 -83.9389 282° West 426 490 38,000  Level Atlanta Center
Thu 06:00:08 PM 35.7267 -84.0744 282° West 420 483 38,000  Level Atlanta Center
Thu 06:01:07 PM 35.7494 -84.2128 282° West 420 483 38,000  Level Atlanta Center
Thu 06:02:08 PM 35.7722 -84.3511 282° West 415 478 38,000  Level Atlanta Center
Thu 06:03:07 PM 35.7947 -84.4867 281° West 415 478 38,000  Level Atlanta Center
Thu 06:04:08 PM 35.8169 -84.6225 282° West 415 478 38,000  Level Atlanta Center
Thu 06:05:08 PM 35.8353 -84.7303 282° West 415 478 38,000 605 Level Atlanta Center
Thu 06:06:07 PM 35.8633 -84.8997 281° West 415 478 39,200 619 Climbing Atlanta Center
Thu 06:08:22 PM 35.9094 -85.1981 282° West 426 490 40,000 246 Climbing Memphis Center
Thu 06:09:22 PM 35.9317 -85.3325 280° West 421 484 40,000  Level Memphis Center
Thu 06:10:22 PM 35.9519 -85.4722 281° West 416 479 40,000  Level Memphis Center
Thu 06:11:22 PM 35.9736 -85.6069 280° West 411 473 40,000  Level Memphis Center
Thu 06:12:22 PM 35.9936 -85.7442 281° West 411 473 40,000  Level Memphis Center
Thu 06:13:23 PM 36.0178 -85.8917 281° West 411 473 40,000  Level Memphis Center
Thu 06:14:22 PM 36.0392 -86.0292 280° West 411 473 40,000  Level Memphis Center
Thu 06:15:23 PM 36.0558 -86.1517 280° West 411 473 40,000  Level Memphis Center
Thu 06:16:23 PM 36.0750 -86.2892 281° West 406 467 40,000  Level Memphis Center
Thu 06:17:23 PM 36.0961 -86.4217 280° West 406 467 40,000  Level Memphis Center
Thu 06:18:22 PM 36.1150 -86.5569 280° West 406 467 40,000  Level Memphis Center
Thu 06:19:23 PM 36.1336 -86.6950 280° West 406 467 40,000  Level Memphis Center
Thu 06:20:22 PM 36.1547 -86.8483 281° West 406 467 40,000 -650 Level Memphis Center
Thu 06:21:23 PM 36.1772 -86.9861 302° West 406 467 38,700 -1,000 Descending Memphis Center
Thu 06:22:22 PM 36.2347 -87.1019 304° West 392 451 38,000 -350 Descending Memphis Center
Thu 06:23:23 PM 36.2958 -87.2156 301° West 392 451 38,000  Level Memphis Center
Thu 06:24:23 PM 36.3553 -87.3394 301° West 410 472 38,000  Level Memphis Center
Thu 06:25:23 PM 36.4058 -87.4458 301° West 410 472 38,000  Level Memphis Center
Thu 06:26:22 PM 36.4628 -87.5650 301° West 405 466 38,000  Level Memphis Center
Thu 06:27:23 PM 36.5172 -87.6794 300° West 400 460 38,000  Level Memphis Center
Thu 06:28:23 PM 36.5719 -87.7964 301° West 400 460 38,000  Level Memphis Center
Thu 06:29:23 PM 36.6286 -87.9161 299° West 394 453 38,000  Level Memphis Center
Thu 06:30:23 PM 36.6872 -88.0464 302° West 399 459 38,000 -400 Level Memphis Center
Thu 06:31:23 PM 36.7456 -88.1611 300° West 399 459 37,200 -1,250 Descending Memphis Center
Thu 06:32:23 PM 36.8019 -88.2814 299° West 399 459 35,500 -1,100 Descending Memphis Center
Thu 06:33:23 PM 36.8561 -88.4019 300° West 399 459 35,000 -250 Descending Memphis Center
Thu 06:34:23 PM 36.9119 -88.5250 300° West 399 459 35,000 -700 Level Memphis Center
Thu 06:35:23 PM 36.9658 -88.6433 299° West 399 459 33,600 -1,000 Descending Memphis Center
Thu 06:36:23 PM 37.0194 -88.7642 299° West 405 466 33,000 -700 Descending Memphis Center
Thu 06:37:23 PM 37.0731 -88.8853 301° West 405 466 32,200 -1,059 Descending Memphis Center
Thu 06:38:22 PM 37.1328 -89.0117 300° West 405 466 30,900 -1,281 Descending Memphis Center
Thu 06:40:35 PM 37.2539 -89.2767 299° West 409 471 28,100 -1,244 Descending Kansas City Center
Thu 06:41:35 PM 37.3097 -89.4061 299° West 409 471 26,900 -1,050 Descending Kansas City Center
Thu 06:42:35 PM 37.3650 -89.5331 300° West 419 482 26,000 -450 Descending Kansas City Center
Thu 06:43:35 PM 37.4225 -89.6600 316° Northwest 419 482 26,000 -800 Level Kansas City Center
Thu 06:44:35 PM 37.5058 -89.7619 319° Northwest 414 476 24,400 -1,950 Descending Kansas City Center
Thu 06:45:35 PM 37.5953 -89.8586 320° Northwest 401 461 22,100 -2,100 Descending Kansas City Center
Thu 06:46:35 PM 37.6714 -89.9406 319° Northwest 390 449 20,200 -2,150 Descending Kansas City Center
Thu 06:47:35 PM 37.7628 -90.0428 318° Northwest 385 443 17,800 -2,150 Descending Kansas City Center
Thu 06:48:35 PM 37.8347 -90.1253 321° Northwest 391 450 15,900 -2,000 Descending Kansas City Center
Thu 06:49:35 PM 37.9214 -90.2150 320° Northwest 374 430 13,800 -1,900 Descending Kansas City Center
Thu 06:50:35 PM 37.9908 -90.2900 333° Northwest 366 421 12,100 -1,100 Descending Kansas City Center
Thu 06:51:35 PM 38.0889 -90.3531 20° North 357 411 11,600 -1,222 Descending Kansas City Center
Thu 06:52:23 PM 38.1483 -90.3253 336° Northwest 306 352 9,900 -1,955 Descending FAA TRACON SMA TRACON (SMA)
Thu 06:53:04 PM 38.1944 -90.3511 337° Northwest 291 335 8,700 -1,926 Descending FAA TRACON SMA TRACON (SMA)
Thu 06:53:44 PM 38.2453 -90.3786 338° Northwest 287 330 7,300 -2,127 Descending FAA TRACON SMA TRACON (SMA)
Thu 06:54:23 PM 38.2950 -90.4047 337° Northwest 281 323 5,900 -1,725 Descending FAA TRACON SMA TRACON (SMA)
Thu 06:55:04 PM 38.3392 -90.4292 339° North 281 323 5,000 -741 Descending FAA TRACON SMA TRACON (SMA)
Thu 06:55:44 PM 38.3892 -90.4539 337° Northwest 280 322 4,900 -684 Descending FAA TRACON SMA TRACON (SMA)
Thu 06:56:23 PM 38.4375 -90.4797 338° Northwest 271 312 4,100 -1,350 Descending FAA TRACON SMA TRACON (SMA)
Thu 06:57:04 PM 38.4783 -90.5008 321° Northwest 256 295 3,100 -889 Descending FAA TRACON SMA TRACON (SMA)
Thu 06:57:44 PM 38.5108 -90.5339 300° West 226 260 2,900 -152 Descending FAA TRACON SMA TRACON (SMA)
Thu 06:58:23 PM 38.5300 -90.5767 299° West 220 253 2,900  Level FAA TRACON SMA TRACON (SMA)
Thu 06:59:03 PM 38.5500 -90.6228 299° West 215 247 2,900  Level FAA TRACON SMA TRACON (SMA)
Thu 06:59:44 PM 38.5678 -90.6631 299° West 189 217 2,900  Level FAA TRACON SMA TRACON (SMA)
Thu 07:00:23 PM 38.5839 -90.7003 299° West 195 224 2,900  Level FAA TRACON SMA TRACON (SMA)
Thu 07:01:06 PM 38.6042 -90.7469 325° Northwest 193 222 2,900 -150 Level FAA TRACON SMA TRACON (SMA)
Thu 07:01:43 PM 38.6283 -90.7689 67° East 204 235 2,700 -769 Descending FAA TRACON SMA TRACON (SMA)
Thu 07:02:24 PM 38.6408 -90.7303 95° East 204 235 1,900 -600 Descending FAA TRACON SMA TRACON (SMA)
Thu 07:03:03 PM 38.6383 -90.6969 81° East 151 174 1,900 -380 Level FAA TRACON SMA TRACON (SMA)
Thu 07:03:43 PM 38.6425 -90.6650 75° East 132 152 1,400 -741 Descending FAA TRACON SMA TRACON (SMA)
Thu 07:04:24 PM 38.6486 -90.6358 82° East 122 140 900 -593 Descending FAA TRACON SMA TRACON (SMA)
Thu 07:05:04 PM 38.6514 -90.6100 82° East 122 140 600 -450 Descending FAA TRACON SMA TRACON (SMA)

Login

Don't have an account? Register now (free) for customized features, flight alerts, and more!